Time;durP1;ratioP1;P1;durP2;ratioP2;P2;SDS_P1;SDS_P2;PMS_P1;PMS_P2;Temp;Humidity;BMP_temperature;BMP_pressure;BME280_temperature;BME280_humidity;BME280_pressure;Samples;Min_cycle;Max_cycle;Signal;HPM_P1;HPM_P2
2021/06/01 00:01:34;;;;;;;;;;;9.10;99.90;;;;;;5032857;28;20002;-68
2021/06/01 00:04:02;;;;;;;;;;;9.10;99.90;;;;;;5034962;28;19921;-69
2021/06/01 00:06:30;;;;;;;;;;;9.10;99.90;;;;;;5017839;28;19928;-69
2021/06/01 00:08:57;;;;;;;;;;;9.00;99.90;;;;;;5035073;28;19921;-66
2021/06/01 00:11:50;;;;;;;;;;;9.00;99.90;;;;;;5033614;28;19959;-66
2021/06/01 00:14:20;;;;;;;;;;;9.00;99.90;;;;;;5034941;28;19924;-67
2021/06/01 00:16:50;;;;;;;;;;;9.00;99.90;;;;;;5047122;28;19927;-69
2021/06/01 00:19:18;;;;;;;;;;;8.90;99.90;;;;;;5054567;28;20380;-67
2021/06/01 00:21:46;;;;;;;;;;;8.90;99.90;;;;;;5054281;28;19925;-66
2021/06/01 00:24:14;;;;;;;;;;;8.80;99.90;;;;;;5055301;28;19924;-67
2021/06/01 00:26:42;;;;;;;;;;;8.70;99.90;;;;;;5053312;28;19925;-67
2021/06/01 00:29:10;;;;;;;;;;;8.60;99.90;;;;;;5053496;28;20291;-66
2021/06/01 00:31:39;;;;;;;;;;;8.50;99.90;;;;;;5054234;28;20019;-66
2021/06/01 00:34:07;;;;;;;;;;;8.40;99.90;;;;;;5054458;28;19968;-69
2021/06/01 00:36:35;;;;;;;;;;;8.30;99.90;;;;;;5054491;28;19920;-67
2021/06/01 00:39:03;;;;;;;;;;;8.30;99.90;;;;;;5054346;28;20015;-66
2021/06/01 00:41:31;;;;;;;;;;;8.30;99.90;;;;;;5053104;28;19987;-65
2021/06/01 00:44:00;;;;;;;;;;;8.20;99.90;;;;;;5052775;28;19921;-66
2021/06/01 00:46:27;;;;;;;;;;;8.20;99.90;;;;;;5053317;28;19921;-66
2021/06/01 00:48:56;;;;;;;;;;;8.20;99.90;;;;;;5052898;28;19920;-66
2021/06/01 00:51:24;;;;;;;;;;;8.20;99.90;;;;;;5054216;28;19925;-66
2021/06/01 00:53:52;;;;;;;;;;;8.20;99.90;;;;;;5054041;28;20365;-65
2021/06/01 00:56:20;;;;;;;;;;;8.10;99.90;;;;;;5054175;28;19928;-65
2021/06/01 00:58:47;;;;;;;;;;;8.10;99.90;;;;;;5054026;28;20317;-66
2021/06/01 01:01:21;;;;;;;;;;;8.10;99.90;;;;;;5051801;28;19921;-66
2021/06/01 01:03:50;;;;;;;;;;;8.10;99.90;;;;;;5053750;28;19967;-66
2021/06/01 01:06:30;;;;;;;;;;;8.10;99.90;;;;;;5053897;28;20372;-67
2021/06/01 01:09:00;;;;;;;;;;;8.00;99.90;;;;;;5053073;28;19943;-66
2021/06/01 01:11:36;;;;;;;;;;;8.00;99.90;;;;;;5054536;28;19921;-69
2021/06/01 01:14:11;;;;;;;;;;;8.10;99.90;;;;;;5067214;28;19921;-68
2021/06/01 01:16:42;;;;;;;;;;;8.10;99.90;;;;;;5066484;28;20214;-66
2021/06/01 01:19:12;;;;;;;;;;;8.10;99.90;;;;;;5053978;28;19927;-65
2021/06/01 01:21:43;;;;;;;;;;;8.10;99.90;;;;;;5053606;28;19921;-66
2021/06/01 01:24:21;;;;;;;;;;;8.10;99.90;;;;;;5054020;28;19921;-66
2021/06/01 01:26:54;;;;;;;;;;;8.10;99.90;;;;;;5053268;28;19966;-67
2021/06/01 01:29:24;;;;;;;;;;;8.10;99.90;;;;;;5052205;28;19921;-66
2021/06/01 01:31:55;;;;;;;;;;;8.00;99.90;;;;;;5052547;28;19978;-66
2021/06/01 01:34:25;;;;;;;;;;;8.00;99.90;;;;;;5053494;28;19921;-67
2021/06/01 01:36:54;;;;;;;;;;;7.90;99.90;;;;;;5053050;28;19921;-66
2021/06/01 01:39:22;;;;;;;;;;;7.90;99.90;;;;;;5053266;28;19920;-67
2021/06/01 01:41:50;;;;;;;;;;;7.90;99.90;;;;;;5035612;28;19925;-66
2021/06/01 01:44:19;;;;;;;;;;;7.90;99.90;;;;;;5052046;28;19927;-66
2021/06/01 01:46:57;;;;;;;;;;;7.90;99.90;;;;;;5052324;28;19959;-66
2021/06/01 01:49:27;;;;;;;;;;;8.00;99.90;;;;;;5052053;28;19965;-67
2021/06/01 01:51:59;;;;;;;;;;;7.90;99.90;;;;;;5052985;28;20384;-66
2021/06/01 01:54:29;;;;;;;;;;;7.80;99.90;;;;;;5035120;28;19924;-66
2021/06/01 01:57:06;;;;;;;;;;;7.70;99.90;;;;;;5054254;28;19921;-66
2021/06/01 01:59:34;;;;;;;;;;;7.70;99.90;;;;;;5055920;28;20423;-67
2021/06/01 02:02:02;;;;;;;;;;;7.60;99.90;;;;;;5056221;28;19921;-67
2021/06/01 02:04:32;;;;;;;;;;;7.50;99.90;;;;;;5056653;28;19966;-66
2021/06/01 02:07:00;;;;;;;;;;;7.40;99.90;;;;;;5057044;28;19928;-69
2021/06/01 02:09:27;;;;;;;;;;;7.40;99.90;;;;;;5055559;28;19967;-66
2021/06/01 02:11:55;;;;;;;;;;;7.30;99.90;;;;;;5056619;28;19920;-66
2021/06/01 02:14:23;;;;;;;;;;;7.30;99.90;;;;;;5056848;28;20358;-68
2021/06/01 02:16:51;;;;;;;;;;;7.30;99.90;;;;;;5056246;28;19927;-66
2021/06/01 02:19:20;;;;;;;;;;;7.30;99.90;;;;;;5056358;28;20292;-66
2021/06/01 02:22:19;;;;;;;;;;;7.30;99.90;;;;;;5056563;28;20011;-69
2021/06/01 02:24:53;;;;;;;;;;;7.40;99.90;;;;;;5056573;28;19932;-66
2021/06/01 02:27:23;;;;;;;;;;;7.30;99.90;;;;;;5038445;28;20338;-66
2021/06/01 02:30:03;;;;;;;;;;;7.30;99.90;;;;;;5056334;28;19920;-66
2021/06/01 02:32:33;;;;;;;;;;;7.40;99.90;;;;;;5055886;28;20331;-65
2021/06/01 02:35:07;;;;;;;;;;;7.40;99.90;;;;;;5054608;28;19995;-66
2021/06/01 02:37:36;;;;;;;;;;;7.40;99.90;;;;;;5056449;28;19925;-68
2021/06/01 02:40:05;;;;;;;;;;;7.40;99.90;;;;;;5056276;28;19921;-66
2021/06/01 02:42:33;;;;;;;;;;;7.40;99.90;;;;;;5056204;28;20031;-66
2021/06/01 02:45:00;;;;;;;;;;;7.30;99.90;;;;;;5056095;28;19935;-67
2021/06/01 02:47:29;;;;;;;;;;;7.20;99.90;;;;;;5055666;28;19928;-67
2021/06/01 02:49:57;;;;;;;;;;;7.10;99.90;;;;;;5056257;28;19948;-67
2021/06/01 02:52:25;;;;;;;;;;;7.10;99.90;;;;;;5037951;28;20380;-67
2021/06/01 02:54:54;;;;;;;;;;;7.10;99.90;;;;;;5054599;28;19921;-66
2021/06/01 02:57:24;;;;;;;;;;;7.10;99.90;;;;;;5056125;28;19943;-67
2021/06/01 02:59:52;;;;;;;;;;;7.00;99.90;;;;;;5056029;28;19925;-66
2021/06/01 03:02:19;;;;;;;;;;;7.00;99.90;;;;;;5055331;28;20390;-66
2021/06/01 03:04:50;;;;;;;;;;;7.00;99.90;;;;;;5056058;28;20476;-66
2021/06/01 03:07:19;;;;;;;;;;;7.00;99.90;;;;;;5055549;28;19920;-66
2021/06/01 03:09:47;;;;;;;;;;;7.00;99.90;;;;;;5054620;28;19952;-66
2021/06/01 03:12:24;;;;;;;;;;;6.90;99.90;;;;;;5038035;28;19924;-66
2021/06/01 03:14:52;;;;;;;;;;;6.90;99.90;;;;;;5056068;28;19921;-66
2021/06/01 03:17:20;;;;;;;;;;;6.80;99.90;;;;;;5055144;28;19921;-66
2021/06/01 03:19:47;;;;;;;;;;;6.80;99.90;;;;;;5055482;28;19921;-66
2021/06/01 03:25:08;;;;;;;;;;;6.70;99.90;;;;;;5055553;28;19921;-66
2021/06/01 03:27:37;;;;;;;;;;;6.70;99.90;;;;;;5054167;28;20376;-66
2021/06/01 03:30:06;;;;;;;;;;;6.70;99.90;;;;;;5055120;28;20053;-66
2021/06/01 03:32:33;;;;;;;;;;;6.70;99.90;;;;;;5055139;28;19921;-69
2021/06/01 03:35:01;;;;;;;;;;;6.70;99.90;;;;;;5054956;28;20359;-69
2021/06/01 03:37:29;;;;;;;;;;;6.70;99.90;;;;;;5055155;28;19925;-66
2021/06/01 03:39:57;;;;;;;;;;;6.80;99.90;;;;;;5055044;28;19924;-66
2021/06/01 03:42:25;;;;;;;;;;;6.80;99.90;;;;;;5053935;28;19924;-66
2021/06/01 03:44:54;;;;;;;;;;;6.90;99.90;;;;;;5054839;28;19974;-69
2021/06/01 03:47:21;;;;;;;;;;;7.00;99.90;;;;;;5054104;28;19924;-67
2021/06/01 03:49:49;;;;;;;;;;;7.00;99.90;;;;;;5054089;28;19974;-67
2021/06/01 03:52:16;;;;;;;;;;;7.00;99.90;;;;;;5055328;28;20365;-67
2021/06/01 03:54:44;;;;;;;;;;;7.10;99.90;;;;;;5055318;28;19960;-67
2021/06/01 03:57:13;;;;;;;;;;;7.10;99.90;;;;;;5054713;28;19920;-67
2021/06/01 03:59:41;;;;;;;;;;;7.10;99.90;;;;;;5054735;28;19920;-66
2021/06/01 04:05:02;;;;;;;;;;;7.20;99.90;;;;;;5054506;28;19974;-69
2021/06/01 04:07:30;;;;;;;;;;;7.20;99.90;;;;;;5054345;28;19920;-69
2021/06/01 04:09:58;;;;;;;;;;;7.20;99.90;;;;;;5054724;28;19943;-67
2021/06/01 04:12:26;;;;;;;;;;;7.30;99.90;;;;;;5054489;28;19920;-67
2021/06/01 04:14:54;;;;;;;;;;;7.40;99.90;;;;;;5054484;28;19921;-67
2021/06/01 04:17:23;;;;;;;;;;;7.40;99.90;;;;;;5053724;28;19920;-66
2021/06/01 04:19:51;;;;;;;;;;;7.60;99.90;;;;;;5053565;28;19963;-67
2021/06/01 04:22:24;;;;;;;;;;;7.70;99.90;;;;;;5053130;28;19943;-66
2021/06/01 04:24:51;;;;;;;;;;;7.70;99.90;;;;;;5054124;28;19924;-66
2021/06/01 04:27:19;;;;;;;;;;;7.90;99.90;;;;;;5054198;28;19971;-69
2021/06/01 04:29:47;;;;;;;;;;;8.00;99.90;;;;;;5054418;28;20296;-66
2021/06/01 04:32:14;;;;;;;;;;;8.10;99.90;;;;;;5053754;28;19959;-67
2021/06/01 04:34:44;;;;;;;;;;;8.20;99.90;;;;;;5054233;28;19943;-66
2021/06/01 04:37:12;;;;;;;;;;;8.40;99.90;;;;;;5054353;28;19924;-66
2021/06/01 04:40:12;;;;;;;;;;;8.50;99.90;;;;;;5052524;28;20326;-67
2021/06/01 04:42:40;;;;;;;;;;;8.60;99.90;;;;;;5052571;28;19921;-66
2021/06/01 04:45:08;;;;;;;;;;;8.70;99.90;;;;;;5052304;28;19921;-66
2021/06/01 04:47:35;;;;;;;;;;;8.80;99.90;;;;;;5053590;28;19924;-66
2021/06/01 04:50:06;;;;;;;;;;;8.90;99.90;;;;;;5053974;28;19921;-67
2021/06/01 04:52:33;;;;;;;;;;;9.10;99.90;;;;;;5053703;28;20327;-66
2021/06/01 04:55:01;;;;;;;;;;;9.20;99.90;;;;;;5054036;28;20377;-67
2021/06/01 04:57:29;;;;;;;;;;;9.40;99.90;;;;;;5052757;28;19920;-66
2021/06/01 04:59:56;;;;;;;;;;;9.60;99.90;;;;;;5052679;28;19943;-67
2021/06/01 05:02:24;;;;;;;;;;;9.70;99.90;;;;;;5054199;28;19924;-67
2021/06/01 05:04:52;;;;;;;;;;;9.90;99.90;;;;;;5058698;28;19988;-67
2021/06/01 05:07:22;;;;;;;;;;;10.00;99.90;;;;;;5058236;28;19966;-69
2021/06/01 05:09:49;;;;;;;;;;;10.10;99.90;;;;;;5056022;28;19928;-67
2021/06/01 05:12:18;;;;;;;;;;;10.30;99.90;;;;;;5055841;28;19960;-67
2021/06/01 05:14:46;;;;;;;;;;;10.50;99.90;;;;;;5055872;28;19924;-67
2021/06/01 05:17:15;;;;;;;;;;;10.70;99.90;;;;;;5059752;28;19974;-66
2021/06/01 05:19:42;;;;;;;;;;;11.00;99.90;;;;;;5063754;28;19920;-65
2021/06/01 05:22:12;;;;;;;;;;;11.10;99.90;;;;;;5063364;28;19928;-66
2021/06/01 05:25:05;;;;;;;;;;;11.20;99.90;;;;;;5061442;28;19982;-66
2021/06/01 05:27:33;;;;;;;;;;;11.40;99.90;;;;;;5061358;28;19931;-68
2021/06/01 05:30:03;;;;;;;;;;;11.60;99.90;;;;;;5060177;28;20019;-66
2021/06/01 05:35:22;;;;;;;;;;;12.00;99.90;;;;;;5054855;28;20000;-69
2021/06/01 05:37:50;;;;;;;;;;;12.10;99.90;;;;;;5053471;28;19921;-66
2021/06/01 05:40:20;;;;;;;;;;;12.10;99.90;;;;;;5056360;28;19975;-66
2021/06/01 05:42:48;;;;;;;;;;;12.40;99.90;;;;;;5056611;28;20007;-67
2021/06/01 05:45:16;;;;;;;;;;;12.60;99.90;;;;;;5054001;28;19921;-66
2021/06/01 05:47:44;;;;;;;;;;;12.70;99.90;;;;;;5061089;28;19920;-66
2021/06/01 05:50:12;;;;;;;;;;;13.00;99.90;;;;;;5065436;28;19921;-66
2021/06/01 05:52:40;;;;;;;;;;;13.30;99.90;;;;;;5055660;28;19920;-69
2021/06/01 05:55:09;;;;;;;;;;;13.30;99.90;;;;;;5053830;28;19927;-66
2021/06/01 05:57:38;;;;;;;;;;;13.40;99.90;;;;;;5052380;28;19967;-66
2021/06/01 06:00:07;;;;;;;;;;;13.40;99.90;;;;;;5052797;28;20288;-69
2021/06/01 06:02:36;;;;;;;;;;;13.50;99.90;;;;;;5052637;28;20447;-67
2021/06/01 06:05:04;;;;;;;;;;;13.30;99.90;;;;;;5054215;28;20011;-67
2021/06/01 06:07:32;;;;;;;;;;;13.30;99.90;;;;;;5053560;28;19969;-70
2021/06/01 06:10:00;;;;;;;;;;;13.40;99.90;;;;;;5052912;28;19955;-68
2021/06/01 06:12:27;;;;;;;;;;;13.50;99.90;;;;;;5056730;28;19925;-70
2021/06/01 06:14:56;;;;;;;;;;;13.70;99.90;;;;;;5059674;28;19955;-68
2021/06/01 06:17:25;;;;;;;;;;;13.80;99.90;;;;;;5062866;28;20019;-68
2021/06/01 06:19:54;;;;;;;;;;;14.20;99.90;;;;;;5044128;28;19927;-70
2021/06/01 06:22:25;;;;;;;;;;;14.40;99.90;;;;;;5060589;28;19931;-68
2021/06/01 06:24:53;;;;;;;;;;;14.30;99.90;;;;;;5058514;28;19921;-67
2021/06/01 06:27:21;;;;;;;;;;;14.50;99.90;;;;;;5061864;28;19920;-68
2021/06/01 06:29:48;;;;;;;;;;;14.50;99.90;;;;;;5059983;28;19922;-68
2021/06/01 06:32:17;;;;;;;;;;;14.60;99.90;;;;;;5059549;28;19924;-68
2021/06/01 06:34:45;;;;;;;;;;;15.00;99.90;;;;;;5058488;28;20499;-69
2021/06/01 06:37:13;;;;;;;;;;;15.30;99.80;;;;;;5055901;28;19920;-71
2021/06/01 06:39:41;;;;;;;;;;;15.60;98.90;;;;;;5053606;28;19990;-68
2021/06/01 06:42:35;;;;;;;;;;;16.20;99.30;;;;;;5054593;28;20001;-68
2021/06/01 06:45:03;;;;;;;;;;;16.70;96.60;;;;;;5057610;28;20019;-68
2021/06/01 06:48:04;;;;;;;;;;;17.10;96.00;;;;;;5056813;28;19971;-67
2021/06/01 06:50:33;;;;;;;;;;;17.40;94.90;;;;;;5058336;28;19956;-68
2021/06/01 06:58:46;;;;;;;;;;;20.10;89.20;;;;;;5057734;28;19920;-69
2021/06/01 07:01:13;;;;;;;;;;;21.00;83.40;;;;;;5057183;28;20329;-68
2021/06/01 07:03:42;;;;;;;;;;;22.90;76.50;;;;;;5058199;28;20001;-69
2021/06/01 07:06:11;;;;;;;;;;;23.60;69.50;;;;;;5058147;28;19921;-67
2021/06/01 07:08:40;;;;;;;;;;;22.80;66.90;;;;;;5057480;28;20232;-67
2021/06/01 07:11:08;;;;;;;;;;;22.40;67.90;;;;;;5056138;28;19928;-67
2021/06/01 07:13:41;;;;;;;;;;;23.50;67.60;;;;;;5058665;28;20038;-68
2021/06/01 07:16:09;;;;;;;;;;;23.70;65.50;;;;;;5055949;28;19920;-68
2021/06/01 07:18:39;;;;;;;;;;;24.50;63.10;;;;;;5055493;28;20048;-68
2021/06/01 07:21:08;;;;;;;;;;;24.10;60.40;;;;;;5057345;28;19978;-67
2021/06/01 07:23:37;;;;;;;;;;;24.10;60.90;;;;;;5058166;28;20400;-67
2021/06/01 07:26:05;;;;;;;;;;;23.40;63.90;;;;;;5056557;28;19924;-66
2021/06/01 07:28:33;;;;;;;;;;;23.30;62.60;;;;;;5038841;28;19971;-67
2021/06/01 07:31:02;;;;;;;;;;;23.70;65.00;;;;;;5056009;28;19920;-67
2021/06/01 07:33:29;;;;;;;;;;;24.60;60.70;;;;;;5059546;28;19932;-67
2021/06/01 07:35:57;;;;;;;;;;;26.50;58.70;;;;;;5055541;28;20011;-67
2021/06/01 07:38:50;;;;;;;;;;;27.90;53.00;;;;;;5056415;28;19947;-67
2021/06/01 07:41:19;;;;;;;;;;;28.40;52.30;;;;;;5055568;28;19947;-69
2021/06/01 07:43:46;;;;;;;;;;;29.50;49.20;;;;;;5055324;28;19925;-68
2021/06/01 07:46:14;;;;;;;;;;;31.10;43.70;;;;;;5054200;28;20007;-72
2021/06/01 07:48:42;;;;;;;;;;;29.60;45.90;;;;;;5054945;28;19920;-68
2021/06/01 07:51:11;;;;;;;;;;;30.80;43.50;;;;;;5054899;28;19920;-69
2021/06/01 07:53:39;;;;;;;;;;;32.80;40.90;;;;;;5054295;28;20323;-69
2021/06/01 07:56:31;;;;;;;;;;;31.20;39.10;;;;;;5054623;28;20380;-72
2021/06/01 07:59:01;;;;;;;;;;;32.60;39.70;;;;;;5054463;28;19927;-69
2021/06/01 08:01:28;;;;;;;;;;;36.00;34.00;;;;;;5053954;28;20378;-69
2021/06/01 08:03:56;;;;;;;;;;;36.80;31.10;;;;;;5054950;28;20082;-69
2021/06/01 08:06:25;;;;;;;;;;;36.20;30.80;;;;;;5054597;28;19920;-68
2021/06/01 08:09:16;;;;;;;;;;;32.10;33.00;;;;;;5055042;28;19979;-69
2021/06/01 08:11:44;;;;;;;;;;;29.30;38.60;;;;;;5054808;28;19970;-68
2021/06/01 08:14:19;;;;;;;;;;;28.50;35.40;;;;;;5055011;28;20012;-69
2021/06/01 08:16:47;;;;;;;;;;;27.50;37.20;;;;;;5054799;28;19925;-68
2021/06/01 08:19:17;;;;;;;;;;;26.10;37.20;;;;;;5055899;28;19936;-68
2021/06/01 08:21:52;;;;;;;;;;;25.40;39.20;;;;;;5055454;28;19939;-68
2021/06/01 08:24:20;;;;;;;;;;;25.90;38.60;;;;;;5055692;28;20030;-69
2021/06/01 08:26:48;;;;;;;;;;;27.20;37.90;;;;;;5054859;28;20332;-69
2021/06/01 08:29:17;;;;;;;;;;;28.30;35.80;;;;;;5055001;28;19966;-69
2021/06/01 08:31:46;;;;;;;;;;;29.00;36.50;;;;;;5059460;28;20294;-67
2021/06/01 08:34:14;;;;;;;;;;;28.30;36.90;;;;;;5057719;28;20426;-68
2021/06/01 08:36:42;;;;;;;;;;;27.40;36.50;;;;;;5056777;28;20342;-68
2021/06/01 08:39:10;;;;;;;;;;;28.30;37.70;;;;;;5055845;28;19920;-68
2021/06/01 08:41:38;;;;;;;;;;;27.20;36.20;;;;;;5057947;28;19924;-68
2021/06/01 08:44:06;;;;;;;;;;;26.40;37.70;;;;;;5059994;28;19921;-67
2021/06/01 08:46:35;;;;;;;;;;;26.30;38.60;;;;;;5056769;28;20291;-69
2021/06/01 08:49:03;;;;;;;;;;;27.60;36.80;;;;;;5055867;28;19921;-67
2021/06/01 08:51:31;;;;;;;;;;;26.50;36.50;;;;;;5056880;28;19920;-67
2021/06/01 08:53:59;;;;;;;;;;;27.30;36.80;;;;;;5055275;28;20430;-68
2021/06/01 08:56:28;;;;;;;;;;;26.70;38.10;;;;;;5054688;28;19927;-68
2021/06/01 08:58:56;;;;;;;;;;;29.60;35.20;;;;;;5052336;28;19921;-68
2021/06/01 09:01:24;;;;;;;;;;;32.00;33.20;;;;;;5053033;28;19950;-69
2021/06/01 09:03:54;;;;;;;;;;;29.50;30.50;;;;;;5052411;28;19921;-68
2021/06/01 09:06:25;;;;;;;;;;;28.80;33.70;;;;;;5053473;28;19927;-68
2021/06/01 09:09:03;;;;;;;;;;;29.20;35.80;;;;;;5053900;28;20376;-68
2021/06/01 09:11:39;;;;;;;;;;;31.80;32.30;;;;;;5052011;28;19946;-67
2021/06/01 09:14:27;;;;;;;;;;;30.60;30.10;;;;;;5051723;28;19932;-67
2021/06/01 09:22:50;;;;;;;;;;;26.70;37.20;;;;;;5053425;28;19921;-67
2021/06/01 09:25:21;;;;;;;;;;;26.80;38.00;;;;;;5054329;28;19943;-67
2021/06/01 09:27:49;;;;;;;;;;;27.10;35.70;;;;;;5054096;28;19984;-67
2021/06/01 09:30:36;;;;;;;;;;;27.20;36.40;;;;;;5053435;28;19925;-67
2021/06/01 09:33:28;;;;;;;;;;;28.20;37.10;;;;;;5054722;28;19974;-67
2021/06/01 09:35:58;;;;;;;;;;;25.70;39.50;;;;;;5057501;28;19927;-68
2021/06/01 09:38:51;;;;;;;;;;;24.70;42.30;;;;;;5067103;28;19931;-67
2021/06/01 09:41:20;;;;;;;;;;;24.80;43.50;;;;;;5072297;28;20344;-67
2021/06/01 09:43:49;;;;;;;;;;;24.60;44.40;;;;;;5072596;28;19931;-68
2021/06/01 09:46:20;;;;;;;;;;;25.40;43.70;;;;;;5071521;28;19921;-68
2021/06/01 09:48:48;;;;;;;;;;;25.90;41.50;;;;;;5069917;28;19947;-67
2021/06/01 09:51:33;;;;;;;;;;;25.60;41.70;;;;;;5068102;28;19920;-68
2021/06/01 09:54:16;;;;;;;;;;;24.40;43.10;;;;;;5060109;28;19921;-67
2021/06/01 09:56:44;;;;;;;;;;;23.70;44.70;;;;;;5057317;28;19921;-67
2021/06/01 09:59:12;;;;;;;;;;;23.30;44.40;;;;;;5055916;28;20341;-67
2021/06/01 10:01:39;;;;;;;;;;;23.20;44.50;;;;;;5054658;28;19985;-66
2021/06/01 10:04:06;;;;;;;;;;;22.80;44.20;;;;;;5048226;28;19933;-67
2021/06/01 10:06:35;;;;;;;;;;;23.30;45.30;;;;;;5037325;28;19955;-66
2021/06/01 10:09:10;;;;;;;;;;;23.70;45.30;;;;;;5038744;28;20459;-67
2021/06/01 10:11:38;;;;;;;;;;;23.50;43.40;;;;;;5038492;28;19953;-66
2021/06/01 10:14:06;;;;;;;;;;;23.70;42.30;;;;;;5045711;28;20331;-68
2021/06/01 10:16:35;;;;;;;;;;;23.50;41.30;;;;;;5029856;28;19920;-68
2021/06/01 10:19:03;;;;;;;;;;;23.30;42.40;;;;;;5043822;28;20020;-68
2021/06/01 10:21:32;;;;;;;;;;;23.40;41.20;;;;;;5037326;28;20013;-68
2021/06/01 10:24:01;;;;;;;;;;;23.70;40.90;;;;;;5039243;28;19927;-68
2021/06/01 10:26:29;;;;;;;;;;;23.50;40.70;;;;;;5039825;28;19925;-68
2021/06/01 10:28:56;;;;;;;;;;;24.10;40.60;;;;;;5037276;28;19921;-69
2021/06/01 10:31:42;;;;;;;;;;;25.50;38.50;;;;;;5035654;28;19920;-69
2021/06/01 10:34:11;;;;;;;;;;;27.40;34.70;;;;;;5038866;28;19921;-68
2021/06/01 10:42:43;;;;;;;;;;;28.10;33.30;;;;;;5040273;28;19978;-69
2021/06/01 10:50:59;;;;;;;;;;;24.70;39.30;;;;;;5035732;28;19924;-69
2021/06/01 10:53:52;;;;;;;;;;;23.70;41.10;;;;;;5039750;28;19979;-68
2021/06/01 10:56:21;;;;;;;;;;;22.80;42.10;;;;;;5041828;28;19921;-68
2021/06/01 10:58:56;;;;;;;;;;;22.70;42.70;;;;;;5044257;28;19921;-68
2021/06/01 11:04:12;;;;;;;;;;;23.80;41.30;;;;;;5040897;28;19991;-67
2021/06/01 11:06:59;;;;;;;;;;;23.10;40.40;;;;;;5037099;28;19947;-68
2021/06/01 11:09:47;;;;;;;;;;;23.30;41.40;;;;;;5040246;28;19967;-68
2021/06/01 11:12:33;;;;;;;;;;;22.70;41.60;;;;;;5041248;28;19928;-68
2021/06/01 11:15:19;;;;;;;;;;;22.70;42.30;;;;;;5040721;28;19927;-67
2021/06/01 11:17:48;;;;;;;;;;;23.50;40.80;;;;;;5038916;28;20143;-67
2021/06/01 11:20:19;;;;;;;;;;;23.60;39.10;;;;;;5040760;28;19928;-67
2021/06/01 11:23:02;;;;;;;;;;;23.60;39.20;;;;;;5038220;28;19935;-67
2021/06/01 11:33:50;;;;;;;;;;;23.80;39.70;;;;;;5038866;28;19987;-67
2021/06/01 11:36:19;;;;;;;;;;;23.40;41.60;;;;;;5036837;28;19921;-67
2021/06/01 11:38:50;;;;;;;;;;;22.80;41.80;;;;;;5044518;28;19947;-68
2021/06/01 11:42:46;;;;;;;;;;;22.90;42.80;;;;;;5041930;28;20284;-67
2021/06/01 11:44:14;;;;;;;;;;;22.70;43.20;;;;;;5040641;28;20285;-67
2021/06/01 11:46:47;;;;;;;;;;;23.00;43.50;;;;;;5027368;28;19975;-67
2021/06/01 11:52:01;;;;;;;;;;;22.80;43.50;;;;;;5037820;28;20295;-68
2021/06/01 11:54:35;;;;;;;;;;;22.80;44.00;;;;;;5035354;28;20439;-69
2021/06/01 11:57:07;;;;;;;;;;;22.70;44.00;;;;;;5038312;28;19920;-68
2021/06/01 12:05:19;;;;;;;;;;;22.60;45.00;;;;;;5035709;28;19925;-67
2021/06/01 12:18:56;;;;;;;;;;;22.40;47.70;;;;;;5047477;28;19932;-68
2021/06/01 12:21:26;;;;;;;;;;;22.80;45.60;;;;;;5032253;28;20297;-68
2021/06/01 12:23:58;;;;;;;;;;;22.90;45.20;;;;;;5034670;28;20325;-68
2021/06/01 12:26:30;;;;;;;;;;;22.90;45.70;;;;;;5049621;28;19921;-68
2021/06/01 12:31:57;;;;;;;;;;;22.60;44.90;;;;;;5031503;28;19939;-68
2021/06/01 12:34:32;;;;;;;;;;;22.50;45.50;;;;;;5037853;28;19921;-67
2021/06/01 12:45:42;;;;;;;;;;;22.80;45.90;;;;;;5033135;28;19921;-66
2021/06/01 13:08:39;;;;;;;;;;;22.90;45.50;;;;;;5023001;28;19991;-69
2021/06/01 13:19:41;;;;;;;;;;;22.60;45.00;;;;;;5031504;28;19924;-68
2021/06/01 13:22:44;;;;;;;;;;;22.40;45.30;;;;;;5039708;28;19944;-68
2021/06/01 13:37:14;;;;;;;;;;;22.70;45.80;;;;;;5043847;28;19927;-67
2021/06/01 13:39:46;;;;;;;;;;;22.90;46.00;;;;;;5039865;28;20031;-66
2021/06/01 13:47:58;;;;;;;;;;;22.90;46.00;;;;;;5033505;28;20292;-68
2021/06/01 13:50:43;;;;;;;;;;;23.00;45.30;;;;;;5037117;28;19984;-69
2021/06/01 13:56:03;;;;;;;;;;;23.60;44.70;;;;;;5036205;28;19975;-67
2021/06/01 13:58:41;;;;;;;;;;;23.60;43.40;;;;;;5045526;28;20361;-69
2021/06/01 14:01:13;;;;;;;;;;;23.50;44.90;;;;;;5028979;28;19935;-66
2021/06/01 14:09:41;;;;;;;;;;;23.80;43.90;;;;;;5047283;28;20159;-67
2021/06/01 14:32:11;;;;;;;;;;;24.50;45.50;;;;;;5030635;28;19929;-68
2021/06/01 14:37:44;;;;;;;;;;;25.50;43.50;;;;;;5042834;28;19921;-67
2021/06/01 15:08:41;;;;;;;;;;;23.10;46.60;;;;;;5046260;28;20407;-67
2021/06/01 15:48:12;;;;;;;;;;;23.40;45.10;;;;;;5033117;28;19928;-68
2021/06/01 15:50:44;;;;;;;;;;;23.60;45.40;;;;;;5043199;28;20026;-67
2021/06/01 15:53:36;;;;;;;;;;;23.40;44.60;;;;;;5046343;28;19921;-68
2021/06/01 16:13:09;;;;;;;;;;;23.30;44.40;;;;;;5034832;28;19921;-67
2021/06/01 16:21:26;;;;;;;;;;;23.40;45.80;;;;;;5047496;28;20012;-67
2021/06/01 16:43:39;;;;;;;;;;;23.10;45.40;;;;;;5048714;28;19921;-67
2021/06/01 17:03:14;;;;;;;;;;;22.90;45.60;;;;;;5027340;28;19925;-67
2021/06/01 17:06:16;;;;;;;;;;;23.00;45.60;;;;;;5032483;28;19928;-67
2021/06/01 17:09:05;;;;;;;;;;;23.00;45.50;;;;;;5049985;28;19921;-68
2021/06/01 17:11:33;;;;;;;;;;;22.80;45.40;;;;;;5030834;28;19921;-68
2021/06/01 17:14:01;;;;;;;;;;;22.80;46.30;;;;;;5024663;28;20384;-68
2021/06/01 17:16:34;;;;;;;;;;;22.70;46.70;;;;;;5009972;28;20009;-69
2021/06/01 17:22:12;;;;;;;;;;;22.60;47.00;;;;;;5020173;28;20001;-68
2021/06/01 17:30:54;;;;;;;;;;;22.80;45.20;;;;;;5006051;28;20007;-67
2021/06/01 17:36:16;;;;;;;;;;;22.60;44.80;;;;;;5019078;28;19922;-67
2021/06/01 17:38:46;;;;;;;;;;;22.50;44.90;;;;;;5015680;28;20413;-68
2021/06/01 17:41:17;;;;;;;;;;;22.40;45.30;;;;;;5012823;28;19941;-68
2021/06/01 17:43:45;;;;;;;;;;;22.40;46.00;;;;;;5019359;28;20024;-68
2021/06/01 17:46:15;;;;;;;;;;;22.30;46.30;;;;;;5022528;28;20146;-68
2021/06/01 17:48:52;;;;;;;;;;;22.20;46.40;;;;;;5017493;28;20008;-67
2021/06/01 17:51:23;;;;;;;;;;;22.10;46.90;;;;;;5016318;28;20020;-67
2021/06/01 17:53:51;;;;;;;;;;;22.10;46.70;;;;;;5021046;28;19929;-68
2021/06/01 17:56:20;;;;;;;;;;;22.00;46.50;;;;;;5032174;28;19960;-68
2021/06/01 17:58:48;;;;;;;;;;;21.90;47.10;;;;;;5020954;28;20381;-68
2021/06/01 18:01:19;;;;;;;;;;;21.90;47.40;;;;;;5007222;28;19937;-68
2021/06/01 18:03:51;;;;;;;;;;;21.90;47.70;;;;;;5033811;28;19960;-69
2021/06/01 18:06:22;;;;;;;;;;;21.80;47.90;;;;;;5024650;28;20222;-67
2021/06/01 18:08:56;;;;;;;;;;;21.80;47.50;;;;;;5013093;28;19933;-68
2021/06/01 18:11:55;;;;;;;;;;;21.70;48.50;;;;;;5023388;28;19990;-68
2021/06/01 18:37:08;;;;;;;;;;;20.80;51.70;;;;;;5041256;28;20365;-67
2021/06/01 18:42:47;;;;;;;;;;;20.50;52.30;;;;;;5043078;28;20156;-68
2021/06/01 19:24:59;;;;;;;;;;;18.70;58.40;;;;;;4964188;28;19937;-73
2021/06/01 19:28:00;;;;;;;;;;;18.50;58.10;;;;;;5020856;28;19929;-72
2021/06/01 19:42:45;;;;;;;;;;;18.10;60.30;;;;;;5046333;28;19925;-73
2021/06/01 19:51:21;;;;;;;;;;;17.80;60.50;;;;;;5043503;28;20434;-72
2021/06/01 19:53:50;;;;;;;;;;;17.70;63.00;;;;;;5042692;28;19929;-73
2021/06/01 19:56:18;;;;;;;;;;;17.50;63.80;;;;;;5035070;28;19967;-72
2021/06/01 19:58:47;;;;;;;;;;;17.30;65.50;;;;;;5042899;28;19943;-72
2021/06/01 20:01:16;;;;;;;;;;;17.20;65.90;;;;;;5030878;28;20297;-73
2021/06/01 20:03:50;;;;;;;;;;;17.00;67.00;;;;;;5048258;28;20463;-78
2021/06/01 20:06:19;;;;;;;;;;;16.90;67.80;;;;;;5042593;28;19929;-78
2021/06/01 20:08:47;;;;;;;;;;;16.80;69.10;;;;;;5039423;28;20341;-79
2021/06/01 20:11:16;;;;;;;;;;;16.70;70.80;;;;;;5022652;28;19932;-79
2021/06/01 20:13:47;;;;;;;;;;;16.60;71.90;;;;;;5038181;28;19925;-79
2021/06/01 20:16:16;;;;;;;;;;;16.50;72.30;;;;;;5034040;28;20075;-79
2021/06/01 20:18:45;;;;;;;;;;;16.40;73.20;;;;;;5039828;28;20035;-73
2021/06/01 20:21:13;;;;;;;;;;;16.40;74.40;;;;;;5047341;28;20360;-72
2021/06/01 20:23:53;;;;;;;;;;;16.30;75.40;;;;;;5040070;28;19965;-73
2021/06/01 20:26:23;;;;;;;;;;;16.20;77.30;;;;;;5042043;28;20074;-73
2021/06/01 20:28:53;;;;;;;;;;;16.10;77.70;;;;;;5039938;28;19925;-72
2021/06/01 20:31:30;;;;;;;;;;;16.00;80.00;;;;;;5039649;28;19929;-72
2021/06/01 20:34:01;;;;;;;;;;;16.00;81.70;;;;;;5044513;28;20399;-73
2021/06/01 20:36:30;;;;;;;;;;;15.80;83.30;;;;;;5035452;28;19932;-73
2021/06/01 20:39:00;;;;;;;;;;;15.70;84.70;;;;;;5038597;28;20407;-73
2021/06/01 20:41:30;;;;;;;;;;;15.60;85.50;;;;;;5037779;28;19925;-73
2021/06/01 20:43:58;;;;;;;;;;;15.50;87.40;;;;;;5036982;28;19925;-72
2021/06/01 20:46:26;;;;;;;;;;;15.50;88.90;;;;;;5032307;28;19924;-72
2021/06/01 20:48:56;;;;;;;;;;;15.50;89.60;;;;;;5051500;28;19987;-72
2021/06/01 20:51:27;;;;;;;;;;;15.40;90.10;;;;;;5041821;28;19932;-72
2021/06/01 20:53:58;;;;;;;;;;;15.30;90.60;;;;;;5046791;28;19925;-72
2021/06/01 20:56:27;;;;;;;;;;;15.30;91.50;;;;;;5037939;28;19995;-72
2021/06/01 20:58:56;;;;;;;;;;;15.20;91.60;;;;;;5026722;28;20334;-72